Aérodrome :
LOGIN :

S'inscrire | Disclaimer

   EN    FR    IT 

 










Légende :    VFR   VFR Marginal   IFR   IFR Intensif   IFR Très Intensif
Visi : 
Plafond : 
>= 8 km
>= 3000ft
5 à 8 km
1000 à 3000 ft
1500m à 5 km
500 à 1000 ft
800 à 1500m
200 à 500 ft
< 800m
< 200 ft
Symboles :   Orages  Brouillard  Fortes neiges  Fortes précipitations  Vent > 20 kt
SIGMETs :   Divers  Orages  Givrage  Turbulence  Onde Orograph.  Cendres Volcan.






- Altitude de l'aérodrome : 1504 ft
- Code IATA : PNA


LEPP - Noain Pamplona

DERNIER METAR :
  • 180530Z 33007KT 9999 FEW020 BKN030 05/03 Q1033

METARs EXPIRÉS :
  • 180500Z 32004KT 9999 FEW020 BKN030 05/04 Q1033
  • 180430Z 32007KT 9999 FEW020 BKN030 05/04 Q1033
  • 180400Z AUTO 31005KT 9999 BKN032 05/03 Q1032
  • 180330Z AUTO 30003KT 270V330 9999 SCT032 05/03 Q1032
  • 180300Z AUTO 34004KT 9999 FEW031 05/04 Q1033

TAF TAF LEPP
Valide du 18 à 03h jusqu'au 19 à 03h UTC


180200Z 1803/1903 34009KT 9999 SCT030 TX09/1814Z TN01/1807Z



MET'MAP, la Météo Aéronautique d'un coup d'oeil ! - Copyright ORBIFLY Décembre 2007 - Disclaimer

ORBIFLY MET'MAP TEAM :

Programmation & Développement : Alexandra Zaïnal
Sur une idée originale de : Baudouin d'Aumeries
Assistance à la programmation : Marc-Olivier Méhu
Soutien technique & logistique : Manuel Goepfert

Contact : metmap@orbifly.com




SOURCES & CREDITS :

   NOAA